Time;durP1;ratioP1;P1;durP2;ratioP2;P2;SDS_P1;SDS_P2;PMS_P1;PMS_P2;Temp;Humidity;BMP_temperature;BMP_pressure;BME280_temperature;BME280_humidity;BME280_pressure;Samples;Min_cycle;Max_cycle;Signal;HPM_P1;HPM_P2
2022/03/27 00:00:43;;;;;;;36.87;19.47;;;4.10;88.30;;;;;;5081299;28;20192;-86
2022/03/27 00:03:09;;;;;;;38.57;19.97;;;4.10;89.10;;;;;;5080497;28;20291;-86
2022/03/27 00:05:35;;;;;;;29.30;17.20;;;4.20;89.10;;;;;;5082371;28;20446;-86
2022/03/27 00:08:01;;;;;;;35.50;17.90;;;4.10;89.60;;;;;;5083189;28;20212;-86
2022/03/27 00:10:26;;;;;;;33.00;18.90;;;4.00;90.30;;;;;;5098718;28;20512;-86
2022/03/27 00:12:52;;;;;;;33.30;17.47;;;4.30;90.50;;;;;;5094930;28;20588;-86
2022/03/27 00:15:18;;;;;;;33.53;18.97;;;3.90;91.00;;;;;;5078733;28;20185;-86
2022/03/27 00:17:44;;;;;;;32.60;19.00;;;3.90;91.50;;;;;;5078429;28;20206;-85
2022/03/27 00:20:12;;;;;;;34.13;17.73;;;3.80;91.30;;;;;;5079317;28;20208;-86
2022/03/27 00:22:38;;;;;;;33.40;18.57;;;3.80;91.40;;;;;;5078967;28;20209;-86
2022/03/27 00:25:06;;;;;;;33.13;19.87;;;3.70;92.00;;;;;;5077945;28;20180;-85
2022/03/27 00:27:32;;;;;;;33.27;19.47;;;3.80;92.30;;;;;;5078273;28;20192;-86
2022/03/27 00:29:59;;;;;;;42.07;21.67;;;3.80;92.50;;;;;;5079113;28;20184;-86
2022/03/27 00:32:25;;;;;;;34.60;19.53;;;3.70;92.60;;;;;;5077562;28;20189;-86
2022/03/27 00:34:51;;;;;;;35.83;20.07;;;3.60;93.20;;;;;;5077876;28;20188;-86
2022/03/27 00:37:17;;;;;;;34.73;19.27;;;3.70;93.60;;;;;;5079147;28;20666;-86
2022/03/27 00:39:43;;;;;;;38.63;17.93;;;3.70;93.60;;;;;;5080667;28;20275;-86
2022/03/27 00:42:09;;;;;;;35.07;19.30;;;3.70;94.30;;;;;;5082954;28;20212;-86
2022/03/27 00:44:38;;;;;;;34.70;19.40;;;3.70;94.70;;;;;;5081108;28;20415;-86
2022/03/27 00:47:05;;;;;;;32.37;18.23;;;3.60;94.90;;;;;;5079925;28;20953;-86
2022/03/27 00:49:32;;;;;;;37.33;19.77;;;3.70;95.20;;;;;;5081955;28;20484;-87
2022/03/27 00:51:57;;;;;;;31.63;16.63;;;3.60;94.60;;;;;;5083932;28;20189;-86
2022/03/27 00:54:23;;;;;;;32.77;18.07;;;3.60;94.50;;;;;;5082638;28;20283;-87
2022/03/27 00:56:49;;;;;;;37.23;18.83;;;3.50;95.00;;;;;;5084571;28;20197;-87
2022/03/27 00:59:15;;;;;;;33.57;19.00;;;3.50;95.50;;;;;;5084434;28;20181;-86
2022/03/27 01:01:42;;;;;;;32.77;17.47;;;3.40;95.80;;;;;;5081131;28;20228;-87
2022/03/27 01:04:08;;;;;;;30.50;17.97;;;3.40;96.50;;;;;;5081264;28;20177;-86
2022/03/27 01:06:39;;;;;;;34.77;18.40;;;3.40;97.00;;;;;;5081867;28;20446;-86
2022/03/27 01:11:54;;;;;;;34.03;18.63;;;3.40;97.70;;;;;;5083989;28;20717;-86
2022/03/27 01:14:32;;;;;;;35.67;19.10;;;3.40;98.10;;;;;;5079598;28;20427;-86
2022/03/27 01:17:09;;;;;;;33.83;18.63;;;3.30;98.90;;;;;;5081130;28;20451;-86
2022/03/27 01:19:43;;;;;;;30.27;17.03;;;3.20;98.80;;;;;;5081406;28;20184;-86
2022/03/27 01:22:10;;;;;;;29.70;16.93;;;3.30;99.90;;;;;;5081681;28;20499;-86
2022/03/27 01:24:36;;;;;;;31.37;18.03;;;3.30;99.90;;;;;;5082546;28;20426;-86
2022/03/27 01:27:03;;;;;;;34.87;17.50;;;3.30;99.90;;;;;;5080791;28;20439;-86
2022/03/27 01:29:29;;;;;;;29.97;17.67;;;3.30;99.90;;;;;;5083039;28;20505;-86
2022/03/27 01:31:55;;;;;;;32.37;18.83;;;3.40;99.90;;;;;;5085343;28;20446;-86
2022/03/27 01:34:21;;;;;;;33.47;18.30;;;3.50;99.90;;;;;;5084847;28;20434;-86
2022/03/27 01:36:47;;;;;;;33.90;18.83;;;3.40;99.90;;;;;;5085701;28;20443;-86
2022/03/27 01:39:14;;;;;;;37.57;18.63;;;3.40;99.90;;;;;;5084833;28;20216;-86
2022/03/27 01:41:41;;;;;;;36.83;19.37;;;3.40;99.90;;;;;;5091402;28;20257;-86
2022/03/27 01:44:13;;;;;;;32.83;18.43;;;4.30;99.90;;;;;;5085868;28;20443;-86
2022/03/27 01:46:41;;;;;;;34.07;18.93;;;3.30;99.90;;;;;;5085497;28;20313;-86
2022/03/27 01:49:09;;;;;;;33.67;18.70;;;3.30;99.90;;;;;;5086126;28;20501;-86
2022/03/27 01:51:36;;;;;;;31.07;17.67;;;3.30;99.90;;;;;;5094881;28;20920;-86
2022/03/27 01:54:03;;;;;;;30.60;16.40;;;3.30;99.90;;;;;;5093114;28;20441;-86
2022/03/27 01:56:30;;;;;;;32.13;17.53;;;3.30;99.90;;;;;;5094263;28;20196;-86
2022/03/27 01:58:56;;;;;;;31.00;17.20;;;3.20;99.90;;;;;;5093319;28;20180;-86
2022/03/27 02:01:22;;;;;;;31.37;17.03;;;3.10;99.90;;;;;;5099986;28;20193;-85
2022/03/27 02:03:49;;;;;;;36.67;19.03;;;3.10;99.90;;;;;;5099949;28;20227;-85
2022/03/27 02:06:15;;;;;;;33.47;19.00;;;3.10;99.90;;;;;;5092857;28;20181;-86
2022/03/27 02:08:42;;;;;;;31.83;18.13;;;3.00;99.90;;;;;;5083919;28;20227;-86
2022/03/27 02:11:09;;;;;;;30.07;17.47;;;3.10;99.90;;;;;;5083373;28;20511;-86
2022/03/27 02:13:35;;;;;;;31.63;16.87;;;3.10;99.90;;;;;;5083488;28;20177;-86
2022/03/27 02:16:03;;;;;;;30.73;17.97;;;3.10;99.90;;;;;;5083715;28;20540;-86
2022/03/27 02:18:30;;;;;;;31.70;17.10;;;3.10;99.90;;;;;;5083341;28;20207;-86
2022/03/27 02:20:57;;;;;;;37.07;18.50;;;3.10;99.90;;;;;;5083281;28;20422;-86
2022/03/27 02:23:24;;;;;;;36.30;17.70;;;2.80;99.90;;;;;;5083130;28;20219;-86
2022/03/27 02:25:50;;;;;;;37.07;18.60;;;2.90;99.90;;;;;;5083057;28;20495;-86
2022/03/27 02:28:16;;;;;;;28.23;17.00;;;2.80;99.90;;;;;;5081987;28;20441;-86
2022/03/27 02:30:43;;;;;;;30.53;17.07;;;2.80;99.90;;;;;;5083171;28;20443;-86
2022/03/27 02:33:09;;;;;;;35.10;18.70;;;2.80;99.90;;;;;;5082883;28;20622;-89
2022/03/27 02:35:35;;;;;;;29.87;17.00;;;2.80;99.90;;;;;;5082784;28;20550;-87
2022/03/27 02:38:05;;;;;;;39.00;18.83;;;2.80;99.90;;;;;;5081935;28;20201;-87
2022/03/27 02:40:49;;;;;;;26.93;16.13;;;2.70;99.90;;;;;;5083458;28;20181;-87
2022/03/27 02:43:15;;;;;;;30.60;17.57;;;2.60;99.90;;;;;;5080861;28;20560;-87
2022/03/27 02:45:41;;;;;;;28.77;16.87;;;2.70;99.90;;;;;;5081663;28;20408;-87
2022/03/27 02:48:08;;;;;;;34.83;17.57;;;2.60;99.90;;;;;;5081744;28;20196;-87
2022/03/27 02:50:36;;;;;;;30.27;16.60;;;2.50;99.90;;;;;;5080814;28;20422;-88
2022/03/27 02:53:03;;;;;;;27.80;14.73;;;2.50;99.90;;;;;;5081000;28;20427;-87
2022/03/27 02:55:28;;;;;;;29.27;16.10;;;2.40;99.90;;;;;;5082523;28;20408;-86
2022/03/27 02:57:54;;;;;;;27.73;16.97;;;2.30;99.90;;;;;;5083020;28;20193;-86
2022/03/27 03:00:21;;;;;;;28.03;16.27;;;2.40;99.90;;;;;;5083124;28;20234;-86
2022/03/27 03:02:47;;;;;;;28.00;15.87;;;2.40;99.90;;;;;;5082034;28;20197;-86
2022/03/27 03:05:13;;;;;;;38.47;16.93;;;2.40;99.90;;;;;;5082262;28;20490;-86
2022/03/27 03:07:42;;;;;;;32.67;17.27;;;2.40;99.90;;;;;;5083911;28;20571;-86
2022/03/27 03:10:09;;;;;;;30.07;17.47;;;2.50;99.90;;;;;;5084007;28;20173;-86
2022/03/27 03:12:35;;;;;;;33.27;17.23;;;2.50;99.90;;;;;;5083876;28;20419;-86
2022/03/27 03:15:01;;;;;;;30.70;17.40;;;2.50;99.90;;;;;;5083059;28;20177;-86
2022/03/27 03:17:27;;;;;;;28.20;16.60;;;2.40;99.90;;;;;;5082213;28;20205;-86
2022/03/27 03:19:53;;;;;;;27.80;15.77;;;2.40;99.90;;;;;;5082234;28;20509;-86
2022/03/27 03:22:18;;;;;;;29.87;17.03;;;2.40;99.90;;;;;;5082409;28;20200;-86
2022/03/27 03:24:46;;;;;;;29.00;16.40;;;2.40;99.90;;;;;;5082599;28;20477;-86
2022/03/27 03:27:12;;;;;;;33.73;17.73;;;2.40;99.90;;;;;;5082203;28;20739;-86
2022/03/27 03:29:38;;;;;;;30.93;17.27;;;2.40;99.90;;;;;;5084471;28;20433;-86
2022/03/27 03:32:04;;;;;;;29.47;16.63;;;2.30;99.90;;;;;;5084333;28;20256;-86
2022/03/27 03:34:30;;;;;;;32.73;16.93;;;2.30;99.90;;;;;;5084511;28;20331;-86
2022/03/27 03:36:56;;;;;;;33.83;16.70;;;2.20;99.90;;;;;;5082591;28;20439;-86
2022/03/27 03:39:22;;;;;;;32.33;17.73;;;2.30;99.90;;;;;;5082922;28;20215;-86
2022/03/27 03:41:48;;;;;;;30.80;16.40;;;2.20;99.90;;;;;;5083842;28;20451;-86
2022/03/27 03:44:14;;;;;;;33.73;18.63;;;2.20;99.90;;;;;;5085231;28;20318;-86
2022/03/27 03:46:39;;;;;;;30.73;17.27;;;2.10;99.90;;;;;;5086581;28;20192;-86
2022/03/27 03:49:08;;;;;;;35.30;17.00;;;2.80;99.90;;;;;;5084657;28;20686;-86
2022/03/27 03:51:35;;;;;;;29.97;16.63;;;2.10;99.90;;;;;;5081313;28;20182;-86
2022/03/27 03:54:02;;;;;;;28.43;15.27;;;2.00;99.90;;;;;;5082383;28;20579;-87
2022/03/27 03:56:27;;;;;;;29.97;17.23;;;1.90;99.90;;;;;;5082130;28;20439;-86
2022/03/27 03:58:53;;;;;;;28.30;16.13;;;1.90;99.90;;;;;;5083213;28;20480;-86
2022/03/27 04:01:19;;;;;;;30.27;17.80;;;1.80;99.90;;;;;;5081586;28;20210;-86
2022/03/27 04:03:44;;;;;;;31.40;16.77;;;1.80;99.90;;;;;;5081271;28;20173;-86
2022/03/27 04:06:10;;;;;;;30.43;16.93;;;1.80;99.90;;;;;;5081478;28;20180;-86
2022/03/27 04:08:36;;;;;;;30.10;16.33;;;1.80;99.90;;;;;;5082629;28;20196;-86
2022/03/27 04:11:02;;;;;;;27.53;15.77;;;1.70;99.90;;;;;;5083094;28;20627;-86
2022/03/27 04:13:28;;;;;;;30.20;16.53;;;2.00;99.90;;;;;;5081105;28;20615;-86
2022/03/27 04:15:53;;;;;;;26.00;15.67;;;1.70;99.90;;;;;;5082287;28;20411;-84
2022/03/27 04:18:19;;;;;;;27.90;15.27;;;1.60;99.90;;;;;;5081599;28;20212;-86
2022/03/27 04:20:45;;;;;;;26.90;16.40;;;1.60;99.90;;;;;;5081884;28;20181;-86
2022/03/27 04:23:11;;;;;;;28.70;16.57;;;1.50;99.90;;;;;;5080808;28;20671;-86
2022/03/27 04:25:38;;;;;;;33.30;16.87;;;1.50;99.90;;;;;;5082619;28;20173;-86
2022/03/27 04:28:08;;;;;;;31.33;16.50;;;1.50;99.90;;;;;;5081570;28;20194;-86
2022/03/27 04:30:35;;;;;;;31.03;16.73;;;1.50;99.90;;;;;;5082737;28;20178;-86
2022/03/27 04:33:00;;;;;;;31.77;16.63;;;1.60;99.90;;;;;;5081046;28;20179;-86
2022/03/27 04:35:26;;;;;;;28.77;15.47;;;1.40;99.90;;;;;;5083101;28;20178;-86
2022/03/27 04:37:52;;;;;;;26.90;14.93;;;1.30;99.90;;;;;;5081741;28;20233;-86
2022/03/27 04:40:18;;;;;;;25.03;14.80;;;1.30;99.90;;;;;;5079794;28;20197;-86
2022/03/27 04:42:44;;;;;;;32.27;15.10;;;1.10;99.90;;;;;;5079558;28;20736;-87
2022/03/27 04:45:11;;;;;;;27.97;14.77;;;1.10;99.90;;;;;;5078983;28;20171;-87
2022/03/27 04:47:38;;;;;;;28.73;15.57;;;1.00;99.90;;;;;;5078810;28;20199;-87
2022/03/27 04:50:04;;;;;;;25.27;15.50;;;1.00;99.90;;;;;;5078445;28;20546;-87
2022/03/27 04:52:30;;;;;;;26.70;15.47;;;0.90;99.90;;;;;;5077508;28;20605;-87
2022/03/27 04:54:56;;;;;;;30.40;16.83;;;0.80;99.90;;;;;;5077716;28;20178;-87
2022/03/27 04:57:22;;;;;;;32.90;16.67;;;0.80;99.90;;;;;;5079133;28;20206;-87
2022/03/27 04:59:48;;;;;;;31.90;16.63;;;0.70;99.90;;;;;;5079986;28;20188;-87
2022/03/27 05:02:14;;;;;;;26.93;15.10;;;0.60;99.90;;;;;;5079140;28;20202;-87
2022/03/27 05:04:41;;;;;;;31.37;15.90;;;0.60;99.90;;;;;;5081816;28;20178;-86
2022/03/27 05:07:07;;;;;;;32.07;16.67;;;0.60;99.90;;;;;;5084029;28;20217;-85
2022/03/27 05:09:33;;;;;;;28.90;15.80;;;0.50;99.90;;;;;;5082743;28;20193;-85
2022/03/27 05:11:59;;;;;;;33.33;17.20;;;0.60;99.90;;;;;;5084773;28;20700;-85
2022/03/27 05:14:25;;;;;;;31.10;16.40;;;0.60;99.90;;;;;;5082491;28;20210;-85
2022/03/27 05:16:50;;;;;;;28.13;16.00;;;0.70;99.90;;;;;;5082559;28;20208;-86
2022/03/27 05:19:16;;;;;;;32.17;16.57;;;0.70;99.90;;;;;;5084270;28;20654;-86
2022/03/27 05:21:42;;;;;;;28.17;15.13;;;0.70;99.90;;;;;;5085585;28;20191;-85
2022/03/27 05:24:09;;;;;;;24.13;14.10;;;0.70;99.90;;;;;;5072291;28;20746;-84
2022/03/27 05:26:35;;;;;;;27.33;15.70;;;0.70;99.90;;;;;;5043351;28;20196;-84
2022/03/27 05:29:04;;;;;;;27.73;15.40;;;0.60;99.90;;;;;;5043710;28;20174;-84
2022/03/27 05:31:29;;;;;;;33.07;15.90;;;1.70;99.90;;;;;;5043699;28;20171;-84
2022/03/27 05:33:55;;;;;;;26.13;14.83;;;0.80;99.90;;;;;;5043310;28;20201;-84
2022/03/27 05:36:21;;;;;;;28.80;15.70;;;0.70;99.90;;;;;;5044751;28;20193;-84
2022/03/27 05:38:47;;;;;;;27.90;15.27;;;0.90;99.90;;;;;;5043838;28;20185;-85
2022/03/27 05:41:13;;;;;;;27.27;15.50;;;1.50;99.90;;;;;;5046639;28;20186;-84
2022/03/27 05:43:39;;;;;;;29.27;14.70;;;1.00;99.90;;;;;;5044417;28;20270;-85
2022/03/27 05:46:04;;;;;;;27.07;14.87;;;1.00;99.90;;;;;;5044655;28;20179;-84
2022/03/27 05:48:30;;;;;;;27.87;15.60;;;0.90;99.90;;;;;;5046521;28;20174;-85
2022/03/27 05:50:56;;;;;;;32.13;15.97;;;1.00;99.90;;;;;;5047438;28;20180;-84
2022/03/27 05:53:21;;;;;;;30.63;16.33;;;1.10;99.90;;;;;;5055186;28;20193;-84
2022/03/27 05:55:47;;;;;;;28.10;14.93;;;1.60;99.90;;;;;;5054149;28;20207;-84
2022/03/27 05:58:14;;;;;;;29.90;15.57;;;1.30;99.90;;;;;;5044943;28;20235;-84
2022/03/27 06:00:40;;;;;;;22.80;14.50;;;1.30;99.90;;;;;;5044696;28;20287;-85
2022/03/27 06:03:06;;;;;;;32.17;14.50;;;1.40;99.90;;;;;;5040942;28;20207;-88
2022/03/27 06:05:32;;;;;;;25.77;15.33;;;1.50;99.90;;;;;;5045182;28;20527;-80
2022/03/27 06:07:58;;;;;;;29.37;16.17;;;1.60;99.90;;;;;;5041471;28;20207;-81
2022/03/27 06:10:27;;;;;;;26.10;15.50;;;1.70;99.90;;;;;;5041080;28;20179;-85
2022/03/27 06:12:53;;;;;;;34.33;15.70;;;1.70;99.90;;;;;;5046367;28;20196;-84
2022/03/27 06:15:20;;;;;;;34.93;16.57;;;1.90;99.90;;;;;;5043740;28;20179;-83
2022/03/27 06:17:47;;;;;;;30.33;17.00;;;1.80;99.90;;;;;;5049205;28;20254;-82
2022/03/27 06:20:19;;;;;;;29.87;16.30;;;2.00;99.90;;;;;;5046312;28;20595;-84
2022/03/27 06:22:45;;;;;;;29.00;15.83;;;2.10;99.90;;;;;;5045846;28;20228;-85
2022/03/27 06:25:17;;;;;;;29.13;15.13;;;2.30;99.90;;;;;;5043682;28;20183;-85
2022/03/27 06:27:44;;;;;;;31.63;15.83;;;2.20;99.90;;;;;;5048971;28;20196;-82
2022/03/27 06:30:13;;;;;;;25.93;15.20;;;2.30;99.90;;;;;;5048094;28;20662;-82
2022/03/27 06:32:39;;;;;;;26.60;14.97;;;2.40;99.90;;;;;;5046564;28;20187;-79
2022/03/27 06:35:06;;;;;;;23.63;14.23;;;2.60;99.90;;;;;;5047638;28;20705;-82
2022/03/27 06:37:33;;;;;;;26.23;15.43;;;2.60;99.90;;;;;;5043540;28;20205;-82
2022/03/27 06:39:59;;;;;;;25.60;15.53;;;2.70;99.90;;;;;;5048093;28;20194;-81
2022/03/27 06:42:26;;;;;;;29.20;16.77;;;2.90;99.90;;;;;;5062829;28;20191;-81
2022/03/27 06:44:54;;;;;;;25.17;15.40;;;3.10;99.90;;;;;;5061715;28;20176;-82
2022/03/27 06:47:22;;;;;;;27.13;15.93;;;3.30;99.90;;;;;;5060051;28;20250;-84
2022/03/27 06:49:48;;;;;;;25.80;15.77;;;3.40;99.90;;;;;;5062920;28;20241;-85
2022/03/27 06:52:15;;;;;;;24.67;14.73;;;3.70;99.90;;;;;;5062211;28;20641;-85
2022/03/27 06:54:41;;;;;;;29.83;15.40;;;4.00;99.90;;;;;;5063268;28;20192;-85
2022/03/27 06:57:07;;;;;;;27.17;14.33;;;4.00;99.90;;;;;;5061620;28;20541;-84
2022/03/27 07:03:01;;;;;;;29.37;15.57;;;4.20;99.90;;;;;;5059897;28;20336;-85
2022/03/27 07:05:04;;;;;;;29.83;15.40;;;4.50;99.90;;;;;;5065402;28;20497;-84
2022/03/27 07:07:30;;;;;;;28.57;14.73;;;4.80;99.90;;;;;;5063748;28;20296;-85
2022/03/27 07:09:56;;;;;;;24.70;15.73;;;4.90;99.90;;;;;;5059984;28;20205;-82
2022/03/27 07:12:22;;;;;;;27.00;15.33;;;5.10;99.90;;;;;;5044468;28;20215;-82
2022/03/27 07:14:49;;;;;;;25.17;15.47;;;5.30;99.90;;;;;;5043465;28;20188;-83
2022/03/27 07:17:18;;;;;;;24.67;15.30;;;5.50;99.90;;;;;;5045006;28;20214;-82
2022/03/27 07:19:44;;;;;;;24.27;15.67;;;5.70;99.90;;;;;;5044542;28;20502;-82
2022/03/27 07:22:11;;;;;;;23.20;15.77;;;6.00;99.90;;;;;;5061994;28;20258;-80
2022/03/27 07:24:37;;;;;;;23.77;15.37;;;6.30;99.90;;;;;;5072733;28;20199;-82
2022/03/27 07:27:02;;;;;;;24.37;16.20;;;6.70;99.90;;;;;;5065832;28;20205;-82
2022/03/27 07:29:30;;;;;;;27.63;15.60;;;7.10;99.90;;;;;;5065505;28;20188;-82
2022/03/27 07:31:57;;;;;;;27.50;15.67;;;7.50;99.90;;;;;;5062172;28;20217;-82
2022/03/27 07:34:23;;;;;;;28.23;16.17;;;7.80;99.90;;;;;;5064648;28;20173;-83
2022/03/27 07:36:49;;;;;;;25.07;16.33;;;8.10;99.90;;;;;;5065380;28;20197;-83
2022/03/27 07:39:15;;;;;;;23.20;14.47;;;8.30;99.90;;;;;;5059314;28;20188;-83
2022/03/27 07:41:40;;;;;;;25.07;15.60;;;8.60;99.90;;;;;;5066539;28;20547;-80
2022/03/27 07:44:06;;;;;;;24.70;15.37;;;8.70;99.90;;;;;;5062807;28;20235;-81
2022/03/27 07:46:32;;;;;;;27.17;15.33;;;9.10;99.90;;;;;;5048523;28;20185;-77
2022/03/27 07:48:58;;;;;;;25.37;16.53;;;9.40;99.60;;;;;;5044092;28;20608;-84
2022/03/27 07:51:24;;;;;;;25.20;17.17;;;9.80;98.50;;;;;;5045007;28;20178;-85
2022/03/27 07:53:51;;;;;;;24.40;15.60;;;10.00;96.20;;;;;;5058895;28;20185;-82
2022/03/27 07:56:18;;;;;;;22.37;15.37;;;10.30;95.60;;;;;;5062286;28;20173;-82
2022/03/27 07:58:44;;;;;;;23.13;15.73;;;11.00;94.30;;;;;;5053573;28;20200;-84
2022/03/27 08:01:12;;;;;;;25.53;15.87;;;11.60;91.20;;;;;;5043188;28;20197;-80
2022/03/27 08:03:39;;;;;;;26.77;16.13;;;12.20;89.40;;;;;;5041368;28;20225;-83
2022/03/27 08:06:06;;;;;;;23.03;15.03;;;12.70;85.80;;;;;;5041183;28;20580;-80
2022/03/27 08:08:32;;;;;;;21.97;15.43;;;13.70;84.50;;;;;;5049461;28;20198;-78
2022/03/27 08:10:59;;;;;;;26.30;16.33;;;14.20;82.40;;;;;;5047121;28;20202;-81
2022/03/27 08:13:25;;;;;;;22.87;14.63;;;14.70;76.10;;;;;;5046327;28;20188;-81
2022/03/27 08:15:51;;;;;;;25.10;16.20;;;15.50;74.40;;;;;;5064712;28;20228;-81
2022/03/27 08:18:16;;;;;;;25.23;16.23;;;16.40;71.30;;;;;;5045130;28;20208;-82
2022/03/27 08:20:44;;;;;;;25.13;15.10;;;16.60;68.70;;;;;;5041381;28;20662;-82
2022/03/27 08:23:10;;;;;;;20.30;14.63;;;16.70;70.00;;;;;;5038124;28;20261;-81
2022/03/27 08:28:21;;;;;;;22.60;16.27;;;17.40;65.80;;;;;;5049915;28;20232;-84
2022/03/27 08:30:48;;;;;;;28.33;16.37;;;17.70;64.40;;;;;;5059360;28;20181;-83
2022/03/27 08:33:15;;;;;;;24.70;16.40;;;17.60;64.00;;;;;;5055684;28;20185;-84
2022/03/27 08:35:42;;;;;;;21.53;15.53;;;17.50;64.20;;;;;;5041166;28;20204;-83
2022/03/27 08:38:15;;;;;;;20.73;15.77;;;16.70;64.70;;;;;;5058458;28;20206;-82
2022/03/27 08:40:44;;;;;;;23.00;15.47;;;16.60;66.60;;;;;;5037388;28;20178;-82
2022/03/27 08:43:14;;;;;;;22.13;16.00;;;17.00;67.90;;;;;;5035966;28;20219;-81
2022/03/27 08:45:41;;;;;;;24.03;16.53;;;16.90;65.30;;;;;;5039086;28;20185;-81
2022/03/27 08:48:07;;;;;;;25.83;16.23;;;17.00;66.80;;;;;;5040130;28;20852;-85
2022/03/27 08:50:49;;;;;;;24.73;16.33;;;17.00;68.40;;;;;;5042240;28;20241;-84
2022/03/27 08:53:28;;;;;;;22.70;15.33;;;17.40;68.60;;;;;;5041464;28;20186;-85
2022/03/27 08:56:00;;;;;;;22.07;14.33;;;17.70;62.40;;;;;;5053679;28;20264;-82
2022/03/27 08:58:36;;;;;;;26.13;16.17;;;17.80;60.90;;;;;;5057412;28;20212;-83
2022/03/27 09:01:04;;;;;;;25.20;14.53;;;17.40;65.60;;;;;;5050107;28;20261;-81
2022/03/27 09:03:30;;;;;;;23.33;15.67;;;17.10;61.20;;;;;;5040350;28;20224;-82
2022/03/27 09:05:57;;;;;;;23.10;15.50;;;17.10;61.20;;;;;;5039515;28;20174;-85
2022/03/27 09:08:22;;;;;;;20.10;15.33;;;17.40;59.90;;;;;;5044794;28;20221;-86
2022/03/27 09:10:48;;;;;;;28.07;15.27;;;17.40;59.40;;;;;;5046948;28;20185;-84
2022/03/27 09:13:16;;;;;;;34.03;15.50;;;17.20;61.70;;;;;;5064775;28;20338;-86
2022/03/27 09:15:43;;;;;;;21.37;14.90;;;17.40;58.90;;;;;;5061916;28;20203;-82
2022/03/27 09:18:11;;;;;;;20.97;15.63;;;17.50;58.90;;;;;;5060041;28;20197;-81
2022/03/27 09:20:50;;;;;;;23.33;16.47;;;17.30;58.80;;;;;;5052978;28;20549;-82
2022/03/27 09:23:27;;;;;;;23.33;16.87;;;17.20;59.90;;;;;;5037233;28;20210;-84
2022/03/27 09:25:58;;;;;;;21.70;15.43;;;16.90;59.70;;;;;;5035363;28;20181;-82
2022/03/27 09:28:41;;;;;;;24.23;16.07;;;17.40;63.70;;;;;;5039255;28;20205;-83
2022/03/27 09:31:18;;;;;;;19.77;15.50;;;17.70;60.00;;;;;;5049725;28;20179;-84
2022/03/27 09:33:51;;;;;;;24.90;14.27;;;17.50;59.80;;;;;;5041419;28;20635;-85
2022/03/27 09:36:44;;;;;;;20.97;15.23;;;17.50;61.80;;;;;;5044797;28;20177;-87
2022/03/27 09:39:13;;;;;;;22.20;13.73;;;18.10;58.30;;;;;;5049668;28;20297;-85
2022/03/27 09:41:53;;;;;;;19.77;15.03;;;18.00;57.70;;;;;;5061932;28;20186;-82
2022/03/27 09:44:30;;;;;;;18.90;13.93;;;17.80;57.60;;;;;;5060242;28;20639;-84
2022/03/27 09:47:01;;;;;;;21.40;14.17;;;17.90;58.20;;;;;;5058275;28;20197;-82
2022/03/27 09:49:35;;;;;;;19.93;13.73;;;17.80;57.40;;;;;;5062145;28;20170;-83
2022/03/27 09:52:17;;;;;;;20.93;13.73;;;18.30;58.70;;;;;;5063911;28;20190;-82
2022/03/27 09:55:06;;;;;;;19.50;13.70;;;18.60;57.00;;;;;;5062505;28;20177;-83
2022/03/27 09:57:38;;;;;;;23.93;14.93;;;18.80;55.00;;;;;;5042826;28;20197;-81
2022/03/27 10:00:20;;;;;;;16.27;13.50;;;18.90;54.70;;;;;;5040965;28;20196;-83
2022/03/27 10:02:48;;;;;;;20.87;14.20;;;18.30;54.90;;;;;;5046794;28;20203;-85
2022/03/27 10:05:16;;;;;;;19.37;14.30;;;18.50;54.90;;;;;;5044516;28;20178;-85
2022/03/27 10:07:53;;;;;;;19.53;14.27;;;18.40;54.90;;;;;;5043394;28;20206;-85
2022/03/27 10:10:20;;;;;;;17.67;14.07;;;18.60;55.20;;;;;;5045174;28;20182;-85
2022/03/27 10:12:49;;;;;;;19.20;14.10;;;18.80;55.20;;;;;;5045848;28;20213;-80
2022/03/27 10:15:20;;;;;;;19.20;15.07;;;18.90;53.80;;;;;;5077287;28;20189;-84
2022/03/27 10:17:50;;;;;;;18.30;14.77;;;19.10;53.30;;;;;;5043961;28;20246;-84
2022/03/27 10:20:19;;;;;;;21.83;14.50;;;19.20;54.40;;;;;;5044144;28;20539;-83
2022/03/27 10:22:48;;;;;;;17.33;13.03;;;19.30;54.90;;;;;;5043362;28;20211;-84
2022/03/27 10:25:16;;;;;;;21.40;13.77;;;19.50;54.30;;;;;;5045146;28;20683;-83
2022/03/27 10:27:43;;;;;;;20.07;14.20;;;19.70;53.30;;;;;;5064060;28;20193;-83
2022/03/27 10:30:12;;;;;;;17.37;13.33;;;20.10;53.70;;;;;;5062989;28;20198;-84
2022/03/27 10:32:39;;;;;;;17.53;13.93;;;20.20;52.50;;;;;;5061050;28;20310;-85
2022/03/27 10:35:32;;;;;;;16.50;13.93;;;20.10;52.60;;;;;;5063017;28;20182;-83
2022/03/27 10:38:16;;;;;;;23.03;14.07;;;20.00;51.40;;;;;;5063911;28;20208;-83
2022/03/27 10:40:52;;;;;;;17.50;12.57;;;19.80;53.10;;;;;;5064163;28;20258;-83
2022/03/27 10:43:36;;;;;;;17.70;13.20;;;20.10;53.10;;;;;;5064296;28;20620;-83
2022/03/27 10:46:17;;;;;;;18.13;14.37;;;20.70;52.90;;;;;;5063155;28;20173;-85
2022/03/27 10:48:45;;;;;;;18.57;13.93;;;20.40;51.90;;;;;;5050816;28;20175;-84
2022/03/27 10:51:36;;;;;;;18.03;13.37;;;20.20;51.10;;;;;;5059391;28;20182;-81
2022/03/27 10:54:06;;;;;;;17.50;13.77;;;20.10;53.10;;;;;;5062963;28;20224;-78
2022/03/27 10:56:37;;;;;;;19.70;13.27;;;20.50;52.80;;;;;;5056901;28;20242;-79
2022/03/27 10:59:41;;;;;;;15.70;13.37;;;20.60;51.80;;;;;;5065855;28;20213;-85
2022/03/27 11:02:06;;;;;;;16.50;13.53;;;21.00;50.80;;;;;;5066149;28;20169;-83
2022/03/27 11:04:36;;;;;;;16.43;13.33;;;21.10;50.20;;;;;;5068515;28;20178;-83
2022/03/27 11:07:18;;;;;;;15.93;13.03;;;21.20;50.40;;;;;;5067130;28;20557;-79
2022/03/27 11:09:45;;;;;;;17.53;14.70;;;21.40;51.40;;;;;;5067773;28;20177;-86
2022/03/27 11:12:25;;;;;;;17.97;14.03;;;21.10;48.80;;;;;;5065934;28;20221;-84
2022/03/27 11:14:54;;;;;;;18.50;13.67;;;21.00;49.00;;;;;;5066219;28;20177;-81
2022/03/27 11:17:48;;;;;;;18.23;13.93;;;21.00;48.50;;;;;;5062997;28;20202;-77
2022/03/27 11:20:25;;;;;;;15.93;14.23;;;21.10;47.20;;;;;;5048789;28;20175;-79
2022/03/27 11:22:52;;;;;;;18.67;13.20;;;20.80;48.60;;;;;;5042451;28;20191;-81
2022/03/27 11:25:41;;;;;;;18.93;15.17;;;21.10;48.40;;;;;;5052890;28;20267;-74
2022/03/27 11:28:20;;;;;;;17.63;13.27;;;21.60;47.20;;;;;;5046054;28;20201;-77
2022/03/27 11:30:52;;;;;;;18.67;14.47;;;21.20;46.00;;;;;;5035239;28;20652;-76
2022/03/27 11:33:22;;;;;;;17.27;12.90;;;21.60;46.20;;;;;;5034696;28;20222;-76
2022/03/27 11:36:09;;;;;;;18.87;12.87;;;21.50;45.50;;;;;;5034919;28;20206;-76
2022/03/27 11:38:35;;;;;;;20.70;14.10;;;21.50;46.80;;;;;;5035890;28;20626;-77
2022/03/27 11:41:26;;;;;;;25.30;14.17;;;21.90;47.80;;;;;;5035073;28;20622;-77
2022/03/27 11:43:53;;;;;;;18.13;13.53;;;22.60;46.60;;;;;;5037323;28;20213;-78
2022/03/27 11:46:23;;;;;;;19.73;12.90;;;23.10;43.00;;;;;;5039346;28;20265;-79
2022/03/27 11:48:56;;;;;;;18.00;13.37;;;23.00;42.50;;;;;;5045004;28;20191;-79
2022/03/27 11:51:25;;;;;;;18.83;13.30;;;22.80;43.10;;;;;;5047140;28;20180;-78
2022/03/27 11:53:52;;;;;;;17.17;12.93;;;22.90;43.10;;;;;;5062277;28;20186;-78
2022/03/27 11:56:18;;;;;;;15.33;12.90;;;23.10;43.70;;;;;;5063165;28;20177;-78
2022/03/27 11:59:01;;;;;;;18.27;12.77;;;23.40;43.90;;;;;;5063252;28;20634;-79
2022/03/27 12:01:26;;;;;;;17.50;11.73;;;24.00;43.10;;;;;;5061901;28;20206;-78
2022/03/27 12:04:00;;;;;;;18.90;12.23;;;24.00;40.50;;;;;;5060680;28;20176;-80
2022/03/27 12:06:27;;;;;;;20.50;12.70;;;24.00;40.30;;;;;;5039426;28;20752;-82
2022/03/27 12:08:53;;;;;;;17.67;12.83;;;23.60;41.10;;;;;;5046010;28;20191;-80
2022/03/27 12:11:23;;;;;;;17.83;12.03;;;23.50;43.50;;;;;;5040762;28;20194;-80
2022/03/27 12:13:50;;;;;;;16.87;12.00;;;23.30;40.20;;;;;;5041150;28;20578;-80
2022/03/27 12:16:21;;;;;;;15.33;12.47;;;23.40;39.20;;;;;;5040802;28;20544;-80
2022/03/27 12:18:50;;;;;;;15.97;11.70;;;23.80;40.50;;;;;;5043842;28;20177;-80
2022/03/27 12:21:22;;;;;;;14.53;12.00;;;24.60;41.40;;;;;;5042547;28;20322;-78
2022/03/27 12:23:51;;;;;;;14.83;11.90;;;25.10;38.90;;;;;;5043587;28;20177;-81
2022/03/27 12:32:02;;;;;;;13.87;11.67;;;25.50;38.40;;;;;;5043497;28;20214;-80
2022/03/27 12:34:28;;;;;;;17.30;12.27;;;25.70;39.20;;;;;;5041027;28;20180;-79
2022/03/27 12:37:14;;;;;;;16.13;12.93;;;25.70;36.50;;;;;;5054571;28;20208;-77
2022/03/27 12:39:49;;;;;;;16.20;13.00;;;25.10;37.00;;;;;;5042575;28;20164;-79
2022/03/27 12:42:32;;;;;;;15.43;12.67;;;24.90;38.70;;;;;;5043336;28;20203;-79
2022/03/27 12:45:11;;;;;;;14.50;12.03;;;25.30;37.10;;;;;;5049335;28;20181;-78
2022/03/27 12:47:47;;;;;;;15.40;11.43;;;25.50;37.00;;;;;;5058429;28;20191;-80
2022/03/27 12:50:15;;;;;;;17.83;11.47;;;26.00;38.00;;;;;;5061590;28;20641;-83
2022/03/27 12:52:46;;;;;;;16.23;11.43;;;26.10;35.40;;;;;;5060158;28;20199;-80
2022/03/27 12:55:12;;;;;;;18.03;11.97;;;26.70;35.90;;;;;;5061858;28;20182;-81